首页
METAR-TAF:

METAR-TAF

机场 :

奇姆肯特國際機場

奇姆肯特, 哈萨克斯坦

纬度: 42-19N, 经度: 069-42E, 海拔: 552米

当前天气观测

该预报发布于39分钟前的15:00 UTC
风速6节,风向
温度 30°C
湿度 25%
气压 1011 hPa
能见度10公里或以上
1500米以下无云,无积雨云

METAR: UAII 251500Z 08003MPS CAVOK 30/08 Q1011 R28/0///70 NOSIG RMK QFE721/0962

时间: 21:39 (15:39 UTC)

预报

该预报发布于4小时和39分钟前的11:00 UTC
预报有效从25日的 12点(UTC)到 26日的 12点(UTC)
风速8节,风向东转东北,有时为17节阵风
能見度: 6000
散云层高于5000英尺
多云层高于10000英尺
短暂存在
从 25日的 12点(UTC)到 25日的 20点(UTC)
风速19节,风向北转东北,有时为29节阵风
短暂存在
从 25日的 20点(UTC)到 26日的 04点(UTC)
风速6节,风向东转东南,有时为16节阵风
短暂存在
从 26日的 04点(UTC)到 26日的 12点(UTC)
风速6节,风向,有时为16节阵风
散云层高于5000英尺, 积雨云.

TAF: UAII 251100Z 2512/2612 06004G09MPS 6000 SCT050 BKN100 TX36/2609Z TN19/2601Z TEMPO 2512/2520 02010G15MPS TEMPO 2520/2604 11003G08MPS TEMPO 2604/2612 35003G08MPS SCT050CB

超过4000个机场的气象观测和天气预报(METAR&TAF报告)。

可查询的气象台以黄色和红色小点在地图上表示。

将鼠标移到小点上方,可查看气象台名称。

然后点击查看天气观测和预报。

如需切换地图:点击带黑十字的绿色按钮放大地图;点击带横线的绿色按钮缩小地图;或者点击绿色箭头查看邻近地区的地图。


METAR-TAF: